Disclaimer

Please do not use the information listed here in-flight or in-navigation, as they are not provided to us by the airports but are provided by volunteers, so they might be outdated.

Search


Regions


Airport information page

Radio informations:
Tower (TWR) - 118.1 MHz
Ground (GND) - 121.7 MHz
Approach (APP) - 119.3 MHz

Airport informations:
Latitude: 25° 27' 19.80" S
Longitude: 054° 50' 36.93" W
Elevation: 846 feet - 258 meters
Operating hours: N/A
Operating agency: Military-civil joint use airport
Timezone: UTC-4(-3DT)
Fuel: Jet A1, without icing nhibitor.

100/130 MIL Spec, low lead, aviation gasoline (BLUE)

Runway information:
05/23 - 11154 x 148 feet< - >3400 x 45 meters

Recent METARs:
SGES 202100Z 04003KT 9999 SCT033 BKN200 30/17 Q1013
SGES 202100Z 04003KT 9999 SCT033 BKN200 30/17 Q1013
SGES 202100Z 04003KT 9999 SCT033 BKN200 30/17 Q1013

Airport on the map: